sensor_id;sensor_type;location;lat;lon;timestamp;temperature;humidity
16102;DHT22;56411;52.964;10.540;2022-09-09T00:00:18;12.60;99.90
16102;DHT22;56411;52.964;10.540;2022-09-09T00:02:50;12.60;99.90
16102;DHT22;56411;52.964;10.540;2022-09-09T00:05:28;12.60;99.90
16102;DHT22;56411;52.964;10.540;2022-09-09T00:07:59;12.60;99.90
16102;DHT22;56411;52.964;10.540;2022-09-09T00:10:32;12.60;99.90
16102;DHT22;56411;52.964;10.540;2022-09-09T00:13:06;12.70;99.90
16102;DHT22;56411;52.964;10.540;2022-09-09T00:15:40;12.60;99.90
16102;DHT22;56411;52.964;10.540;2022-09-09T00:18:17;12.60;99.90
16102;DHT22;56411;52.964;10.540;2022-09-09T00:20:53;12.60;99.90
16102;DHT22;56411;52.964;10.540;2022-09-09T00:23:25;12.60;99.90
16102;DHT22;56411;52.964;10.540;2022-09-09T00:26:02;12.70;99.90
16102;DHT22;56411;52.964;10.540;2022-09-09T00:28:35;12.70;99.90
16102;DHT22;56411;52.964;10.540;2022-09-09T00:31:12;12.70;99.90
16102;DHT22;56411;52.964;10.540;2022-09-09T00:33:40;12.70;99.90
16102;DHT22;56411;52.964;10.540;2022-09-09T00:36:13;12.60;99.90
16102;DHT22;56411;52.964;10.540;2022-09-09T00:38:43;12.60;99.90
16102;DHT22;56411;52.964;10.540;2022-09-09T00:41:18;12.70;99.90
16102;DHT22;56411;52.964;10.540;2022-09-09T00:43:53;12.70;99.90
16102;DHT22;56411;52.964;10.540;2022-09-09T00:46:49;12.70;99.90
16102;DHT22;56411;52.964;10.540;2022-09-09T00:49:29;12.60;99.90
16102;DHT22;56411;52.964;10.540;2022-09-09T00:52:06;12.60;99.90
16102;DHT22;56411;52.964;10.540;2022-09-09T00:54:44;12.60;99.90
16102;DHT22;56411;52.964;10.540;2022-09-09T00:57:26;12.60;99.90
16102;DHT22;56411;52.964;10.540;2022-09-09T01:00:15;12.60;99.90
16102;DHT22;56411;52.964;10.540;2022-09-09T01:05:39;12.60;99.90
16102;DHT22;56411;52.964;10.540;2022-09-09T01:08:19;12.60;99.90
16102;DHT22;56411;52.964;10.540;2022-09-09T01:10:50;12.50;99.90
16102;DHT22;56411;52.964;10.540;2022-09-09T01:13:24;12.40;99.90
16102;DHT22;56411;52.964;10.540;2022-09-09T01:15:53;12.40;99.90
16102;DHT22;56411;52.964;10.540;2022-09-09T01:18:23;12.40;99.90
16102;DHT22;56411;52.964;10.540;2022-09-09T01:20:58;12.30;99.90
16102;DHT22;56411;52.964;10.540;2022-09-09T01:23:42;12.40;99.90
16102;DHT22;56411;52.964;10.540;2022-09-09T01:26:19;12.40;99.90
16102;DHT22;56411;52.964;10.540;2022-09-09T01:28:50;12.40;99.90
16102;DHT22;56411;52.964;10.540;2022-09-09T01:31:21;12.40;99.90
16102;DHT22;56411;52.964;10.540;2022-09-09T01:33:49;12.40;99.90
16102;DHT22;56411;52.964;10.540;2022-09-09T01:36:24;12.40;99.90
16102;DHT22;56411;52.964;10.540;2022-09-09T01:38:52;12.30;99.90
16102;DHT22;56411;52.964;10.540;2022-09-09T01:41:21;12.30;99.90
16102;DHT22;56411;52.964;10.540;2022-09-09T01:43:48;12.20;99.90
16102;DHT22;56411;52.964;10.540;2022-09-09T01:46:17;12.20;99.90
16102;DHT22;56411;52.964;10.540;2022-09-09T01:48:45;12.20;99.90
16102;DHT22;56411;52.964;10.540;2022-09-09T01:51:12;12.20;99.90
16102;DHT22;56411;52.964;10.540;2022-09-09T01:53:39;12.20;99.90
16102;DHT22;56411;52.964;10.540;2022-09-09T01:56:15;12.20;99.90
16102;DHT22;56411;52.964;10.540;2022-09-09T01:58:57;12.10;99.90
16102;DHT22;56411;52.964;10.540;2022-09-09T02:01:36;12.10;99.90
16102;DHT22;56411;52.964;10.540;2022-09-09T02:04:13;12.00;99.90
16102;DHT22;56411;52.964;10.540;2022-09-09T02:06:42;11.90;99.90
16102;DHT22;56411;52.964;10.540;2022-09-09T02:09:13;11.90;99.90
16102;DHT22;56411;52.964;10.540;2022-09-09T02:11:44;11.90;99.90
16102;DHT22;56411;52.964;10.540;2022-09-09T02:14:19;11.90;99.90
16102;DHT22;56411;52.964;10.540;2022-09-09T02:16:52;11.90;99.90
16102;DHT22;56411;52.964;10.540;2022-09-09T02:19:24;11.90;99.90
16102;DHT22;56411;52.964;10.540;2022-09-09T02:21:54;11.90;99.90
16102;DHT22;56411;52.964;10.540;2022-09-09T02:24:22;11.90;99.90
16102;DHT22;56411;52.964;10.540;2022-09-09T02:26:51;11.90;99.90
16102;DHT22;56411;52.964;10.540;2022-09-09T02:29:24;11.80;99.90
16102;DHT22;56411;52.964;10.540;2022-09-09T02:31:54;11.70;99.90
16102;DHT22;56411;52.964;10.540;2022-09-09T02:34:23;11.60;99.90
16102;DHT22;56411;52.964;10.540;2022-09-09T02:36:54;11.50;99.90
16102;DHT22;56411;52.964;10.540;2022-09-09T02:39:22;11.40;99.90
16102;DHT22;56411;52.964;10.540;2022-09-09T02:41:49;11.40;99.90
16102;DHT22;56411;52.964;10.540;2022-09-09T02:44:17;11.30;99.90
16102;DHT22;56411;52.964;10.540;2022-09-09T02:46:58;11.30;99.90
16102;DHT22;56411;52.964;10.540;2022-09-09T02:49:34;11.30;99.90
16102;DHT22;56411;52.964;10.540;2022-09-09T02:52:08;11.20;99.90
16102;DHT22;56411;52.964;10.540;2022-09-09T02:54:38;11.20;99.90
16102;DHT22;56411;52.964;10.540;2022-09-09T02:57:10;11.20;99.90
16102;DHT22;56411;52.964;10.540;2022-09-09T02:59:38;11.20;99.90
16102;DHT22;56411;52.964;10.540;2022-09-09T03:02:06;11.40;99.90
16102;DHT22;56411;52.964;10.540;2022-09-09T03:04:33;11.50;99.90
16102;DHT22;56411;52.964;10.540;2022-09-09T03:07:00;11.40;99.90
16102;DHT22;56411;52.964;10.540;2022-09-09T03:09:29;11.30;99.90
16102;DHT22;56411;52.964;10.540;2022-09-09T03:11:56;11.20;99.90
16102;DHT22;56411;52.964;10.540;2022-09-09T03:14:23;11.20;99.90
16102;DHT22;56411;52.964;10.540;2022-09-09T03:16:51;11.20;99.90
16102;DHT22;56411;52.964;10.540;2022-09-09T03:19:20;11.20;99.90
16102;DHT22;56411;52.964;10.540;2022-09-09T03:21:47;11.40;99.90
16102;DHT22;56411;52.964;10.540;2022-09-09T03:24:15;11.50;99.90
16102;DHT22;56411;52.964;10.540;2022-09-09T03:26:42;11.50;99.90
16102;DHT22;56411;52.964;10.540;2022-09-09T03:29:11;11.50;99.90
16102;DHT22;56411;52.964;10.540;2022-09-09T03:31:39;11.50;99.90
16102;DHT22;56411;52.964;10.540;2022-09-09T03:34:06;11.40;99.90
16102;DHT22;56411;52.964;10.540;2022-09-09T03:36:34;11.40;99.90
16102;DHT22;56411;52.964;10.540;2022-09-09T03:39:02;11.30;99.90
16102;DHT22;56411;52.964;10.540;2022-09-09T03:41:30;11.20;99.90
16102;DHT22;56411;52.964;10.540;2022-09-09T03:43:57;11.20;99.90
16102;DHT22;56411;52.964;10.540;2022-09-09T03:46:25;11.30;99.90
16102;DHT22;56411;52.964;10.540;2022-09-09T03:48:52;11.50;99.90
16102;DHT22;56411;52.964;10.540;2022-09-09T03:51:20;11.50;99.90
16102;DHT22;56411;52.964;10.540;2022-09-09T03:53:48;11.50;99.90
16102;DHT22;56411;52.964;10.540;2022-09-09T03:56:15;11.40;99.90
16102;DHT22;56411;52.964;10.540;2022-09-09T03:58:42;11.30;99.90
16102;DHT22;56411;52.964;10.540;2022-09-09T04:01:14;11.30;99.90
16102;DHT22;56411;52.964;10.540;2022-09-09T04:03:43;11.30;99.90
16102;DHT22;56411;52.964;10.540;2022-09-09T04:06:12;11.30;99.90
16102;DHT22;56411;52.964;10.540;2022-09-09T04:08:40;11.30;99.90
16102;DHT22;56411;52.964;10.540;2022-09-09T04:11:08;11.30;99.90
16102;DHT22;56411;52.964;10.540;2022-09-09T04:13:37;11.20;99.90
16102;DHT22;56411;52.964;10.540;2022-09-09T04:16:05;11.20;99.90
16102;DHT22;56411;52.964;10.540;2022-09-09T04:18:32;11.20;99.90
16102;DHT22;56411;52.964;10.540;2022-09-09T04:20:59;11.20;99.90
16102;DHT22;56411;52.964;10.540;2022-09-09T04:23:27;11.20;99.90
16102;DHT22;56411;52.964;10.540;2022-09-09T04:25:56;11.20;99.90
16102;DHT22;56411;52.964;10.540;2022-09-09T04:28:26;11.20;99.90
16102;DHT22;56411;52.964;10.540;2022-09-09T04:30:53;11.20;99.90
16102;DHT22;56411;52.964;10.540;2022-09-09T04:33:20;11.20;99.90
16102;DHT22;56411;52.964;10.540;2022-09-09T04:35:48;11.30;99.90
16102;DHT22;56411;52.964;10.540;2022-09-09T04:38:16;11.30;99.90
16102;DHT22;56411;52.964;10.540;2022-09-09T04:40:43;11.40;99.90
16102;DHT22;56411;52.964;10.540;2022-09-09T04:43:12;11.50;99.90
16102;DHT22;56411;52.964;10.540;2022-09-09T04:45:41;11.50;99.90
16102;DHT22;56411;52.964;10.540;2022-09-09T04:48:08;11.50;99.90
16102;DHT22;56411;52.964;10.540;2022-09-09T04:50:36;11.50;99.90
16102;DHT22;56411;52.964;10.540;2022-09-09T04:53:04;11.50;99.90
16102;DHT22;56411;52.964;10.540;2022-09-09T04:55:31;11.50;99.90
16102;DHT22;56411;52.964;10.540;2022-09-09T04:58:03;11.50;99.90
16102;DHT22;56411;52.964;10.540;2022-09-09T05:00:30;11.50;99.90
16102;DHT22;56411;52.964;10.540;2022-09-09T05:03:02;11.50;99.90
16102;DHT22;56411;52.964;10.540;2022-09-09T05:05:29;11.60;99.90
16102;DHT22;56411;52.964;10.540;2022-09-09T05:08:00;11.60;99.90
16102;DHT22;56411;52.964;10.540;2022-09-09T05:10:28;11.60;99.90
16102;DHT22;56411;52.964;10.540;2022-09-09T05:12:54;11.70;99.90
16102;DHT22;56411;52.964;10.540;2022-09-09T05:15:21;11.70;99.90
16102;DHT22;56411;52.964;10.540;2022-09-09T05:17:48;11.70;99.90
16102;DHT22;56411;52.964;10.540;2022-09-09T05:20:19;11.80;99.90
16102;DHT22;56411;52.964;10.540;2022-09-09T05:22:46;11.80;99.90
16102;DHT22;56411;52.964;10.540;2022-09-09T05:25:14;11.90;99.90
16102;DHT22;56411;52.964;10.540;2022-09-09T05:27:41;11.90;99.90
16102;DHT22;56411;52.964;10.540;2022-09-09T05:30:09;12.00;99.90
16102;DHT22;56411;52.964;10.540;2022-09-09T05:32:36;12.00;99.90
16102;DHT22;56411;52.964;10.540;2022-09-09T05:35:03;12.00;99.90
16102;DHT22;56411;52.964;10.540;2022-09-09T05:37:32;12.10;99.90
16102;DHT22;56411;52.964;10.540;2022-09-09T05:39:59;12.10;99.90
16102;DHT22;56411;52.964;10.540;2022-09-09T05:42:30;12.10;99.90
16102;DHT22;56411;52.964;10.540;2022-09-09T05:44:57;12.10;99.90
16102;DHT22;56411;52.964;10.540;2022-09-09T05:47:24;12.10;99.90
16102;DHT22;56411;52.964;10.540;2022-09-09T05:49:53;12.20;99.90
16102;DHT22;56411;52.964;10.540;2022-09-09T05:52:20;12.20;99.90
16102;DHT22;56411;52.964;10.540;2022-09-09T05:54:49;12.20;99.90
16102;DHT22;56411;52.964;10.540;2022-09-09T05:57:16;12.30;99.90
16102;DHT22;56411;52.964;10.540;2022-09-09T05:59:44;12.30;99.90
16102;DHT22;56411;52.964;10.540;2022-09-09T06:02:11;12.40;99.90
16102;DHT22;56411;52.964;10.540;2022-09-09T06:04:39;12.50;99.90
16102;DHT22;56411;52.964;10.540;2022-09-09T06:07:06;12.50;99.90
16102;DHT22;56411;52.964;10.540;2022-09-09T06:09:32;12.60;99.90
16102;DHT22;56411;52.964;10.540;2022-09-09T06:12:01;12.60;99.90
16102;DHT22;56411;52.964;10.540;2022-09-09T06:14:28;12.70;99.90
16102;DHT22;56411;52.964;10.540;2022-09-09T06:16:55;12.70;99.90
16102;DHT22;56411;52.964;10.540;2022-09-09T06:19:22;12.80;99.90
16102;DHT22;56411;52.964;10.540;2022-09-09T06:21:52;12.90;99.90
16102;DHT22;56411;52.964;10.540;2022-09-09T06:24:19;12.90;99.90
16102;DHT22;56411;52.964;10.540;2022-09-09T06:26:46;13.00;99.90
16102;DHT22;56411;52.964;10.540;2022-09-09T06:29:14;13.00;99.90
16102;DHT22;56411;52.964;10.540;2022-09-09T06:31:41;13.10;99.90
16102;DHT22;56411;52.964;10.540;2022-09-09T06:34:08;13.20;99.90
16102;DHT22;56411;52.964;10.540;2022-09-09T06:36:36;13.20;99.90
16102;DHT22;56411;52.964;10.540;2022-09-09T06:39:04;13.30;99.90
16102;DHT22;56411;52.964;10.540;2022-09-09T06:41:32;13.40;99.90
16102;DHT22;56411;52.964;10.540;2022-09-09T06:43:59;13.40;99.90
16102;DHT22;56411;52.964;10.540;2022-09-09T06:46:28;13.50;99.90
16102;DHT22;56411;52.964;10.540;2022-09-09T06:48:57;13.50;99.90
16102;DHT22;56411;52.964;10.540;2022-09-09T06:51:28;13.60;99.90
16102;DHT22;56411;52.964;10.540;2022-09-09T06:53:57;13.70;99.90
16102;DHT22;56411;52.964;10.540;2022-09-09T06:56:26;13.80;99.90
16102;DHT22;56411;52.964;10.540;2022-09-09T06:58:55;13.90;99.90
16102;DHT22;56411;52.964;10.540;2022-09-09T07:01:23;13.90;99.90
16102;DHT22;56411;52.964;10.540;2022-09-09T07:03:53;14.00;99.90
16102;DHT22;56411;52.964;10.540;2022-09-09T07:06:22;14.00;99.90
16102;DHT22;56411;52.964;10.540;2022-09-09T07:08:50;14.20;99.90
16102;DHT22;56411;52.964;10.540;2022-09-09T07:11:18;14.40;99.90
16102;DHT22;56411;52.964;10.540;2022-09-09T07:13:45;14.60;99.90
16102;DHT22;56411;52.964;10.540;2022-09-09T07:16:14;14.80;99.90
16102;DHT22;56411;52.964;10.540;2022-09-09T07:18:42;14.80;99.90
16102;DHT22;56411;52.964;10.540;2022-09-09T07:21:11;15.00;99.90
16102;DHT22;56411;52.964;10.540;2022-09-09T07:23:39;15.00;99.90
16102;DHT22;56411;52.964;10.540;2022-09-09T07:26:08;15.00;99.90
16102;DHT22;56411;52.964;10.540;2022-09-09T07:28:36;15.20;99.90
16102;DHT22;56411;52.964;10.540;2022-09-09T07:31:04;15.30;99.90
16102;DHT22;56411;52.964;10.540;2022-09-09T07:33:33;15.40;99.90
16102;DHT22;56411;52.964;10.540;2022-09-09T07:36:05;15.60;99.90
16102;DHT22;56411;52.964;10.540;2022-09-09T07:38:37;15.70;99.90
16102;DHT22;56411;52.964;10.540;2022-09-09T07:41:05;15.90;99.90
16102;DHT22;56411;52.964;10.540;2022-09-09T07:43:34;16.10;99.90
16102;DHT22;56411;52.964;10.540;2022-09-09T07:46:01;16.30;99.90
16102;DHT22;56411;52.964;10.540;2022-09-09T07:48:29;16.20;99.90
16102;DHT22;56411;52.964;10.540;2022-09-09T07:51:07;16.10;99.90
16102;DHT22;56411;52.964;10.540;2022-09-09T07:53:35;16.20;99.90
16102;DHT22;56411;52.964;10.540;2022-09-09T07:56:05;16.20;99.90
16102;DHT22;56411;52.964;10.540;2022-09-09T07:58:32;16.30;99.90
16102;DHT22;56411;52.964;10.540;2022-09-09T08:01:00;16.40;99.90
16102;DHT22;56411;52.964;10.540;2022-09-09T08:03:26;16.50;99.90
16102;DHT22;56411;52.964;10.540;2022-09-09T08:06:00;16.60;99.90
16102;DHT22;56411;52.964;10.540;2022-09-09T08:08:27;16.70;99.90
16102;DHT22;56411;52.964;10.540;2022-09-09T08:11:03;16.80;99.90
16102;DHT22;56411;52.964;10.540;2022-09-09T08:13:30;16.90;99.90
16102;DHT22;56411;52.964;10.540;2022-09-09T08:16:04;17.00;99.90
16102;DHT22;56411;52.964;10.540;2022-09-09T08:18:32;16.80;99.90
16102;DHT22;56411;52.964;10.540;2022-09-09T08:21:05;16.70;99.90
16102;DHT22;56411;52.964;10.540;2022-09-09T08:23:32;16.60;99.90
16102;DHT22;56411;52.964;10.540;2022-09-09T08:26:05;16.60;99.90
16102;DHT22;56411;52.964;10.540;2022-09-09T08:28:32;16.50;99.90
16102;DHT22;56411;52.964;10.540;2022-09-09T08:31:06;16.50;99.90
16102;DHT22;56411;52.964;10.540;2022-09-09T08:33:33;16.60;99.90
16102;DHT22;56411;52.964;10.540;2022-09-09T08:36:02;16.60;99.90
16102;DHT22;56411;52.964;10.540;2022-09-09T08:38:28;16.60;99.90
16102;DHT22;56411;52.964;10.540;2022-09-09T08:43:46;16.50;99.90
16102;DHT22;56411;52.964;10.540;2022-09-09T08:46:17;16.60;99.90
16102;DHT22;56411;52.964;10.540;2022-09-09T08:48:54;16.80;99.90
16102;DHT22;56411;52.964;10.540;2022-09-09T08:51:25;17.00;99.90
16102;DHT22;56411;52.964;10.540;2022-09-09T08:53:54;17.10;99.90
16102;DHT22;56411;52.964;10.540;2022-09-09T08:56:24;17.20;99.90
16102;DHT22;56411;52.964;10.540;2022-09-09T08:58:54;17.40;99.90
16102;DHT22;56411;52.964;10.540;2022-09-09T09:01:45;17.50;99.90
16102;DHT22;56411;52.964;10.540;2022-09-09T09:04:33;17.70;99.90
16102;DHT22;56411;52.964;10.540;2022-09-09T09:07:11;17.90;99.90
16102;DHT22;56411;52.964;10.540;2022-09-09T09:09:48;18.00;99.90
16102;DHT22;56411;52.964;10.540;2022-09-09T09:12:27;18.10;99.90
16102;DHT22;56411;52.964;10.540;2022-09-09T09:14:56;18.20;99.90
16102;DHT22;56411;52.964;10.540;2022-09-09T09:17:27;18.30;99.90
16102;DHT22;56411;52.964;10.540;2022-09-09T09:19:57;18.40;99.90
16102;DHT22;56411;52.964;10.540;2022-09-09T09:22:30;18.60;99.90
16102;DHT22;56411;52.964;10.540;2022-09-09T09:25:02;18.70;99.90
16102;DHT22;56411;52.964;10.540;2022-09-09T09:27:34;18.80;99.90
16102;DHT22;56411;52.964;10.540;2022-09-09T09:30:12;19.10;99.90
16102;DHT22;56411;52.964;10.540;2022-09-09T09:32:45;19.40;99.90
16102;DHT22;56411;52.964;10.540;2022-09-09T09:35:15;19.60;99.90
16102;DHT22;56411;52.964;10.540;2022-09-09T09:37:42;19.70;99.90
16102;DHT22;56411;52.964;10.540;2022-09-09T09:40:11;19.50;99.90
16102;DHT22;56411;52.964;10.540;2022-09-09T09:42:49;19.30;99.90
16102;DHT22;56411;52.964;10.540;2022-09-09T09:45:26;19.10;99.90
16102;DHT22;56411;52.964;10.540;2022-09-09T09:48:02;19.10;99.90
16102;DHT22;56411;52.964;10.540;2022-09-09T09:50:30;19.10;99.90
16102;DHT22;56411;52.964;10.540;2022-09-09T09:52:59;19.10;99.90
16102;DHT22;56411;52.964;10.540;2022-09-09T09:55:28;19.20;99.90
16102;DHT22;56411;52.964;10.540;2022-09-09T09:58:01;19.50;99.90
16102;DHT22;56411;52.964;10.540;2022-09-09T10:00:30;19.70;99.90
16102;DHT22;56411;52.964;10.540;2022-09-09T10:02:59;19.80;99.90
16102;DHT22;56411;52.964;10.540;2022-09-09T10:05:28;19.70;99.90
16102;DHT22;56411;52.964;10.540;2022-09-09T10:08:03;19.90;99.90
16102;DHT22;56411;52.964;10.540;2022-09-09T10:10:42;20.20;99.90
16102;DHT22;56411;52.964;10.540;2022-09-09T10:13:19;20.30;99.90
16102;DHT22;56411;52.964;10.540;2022-09-09T10:15:59;20.40;99.90
16102;DHT22;56411;52.964;10.540;2022-09-09T10:18:49;20.40;99.90
16102;DHT22;56411;52.964;10.540;2022-09-09T10:21:31;20.50;99.90
16102;DHT22;56411;52.964;10.540;2022-09-09T10:24:12;20.70;99.90
16102;DHT22;56411;52.964;10.540;2022-09-09T10:26:47;21.10;99.90
16102;DHT22;56411;52.964;10.540;2022-09-09T10:29:35;21.40;99.90
16102;DHT22;56411;52.964;10.540;2022-09-09T10:32:20;21.40;99.90
16102;DHT22;56411;52.964;10.540;2022-09-09T10:34:56;21.70;99.90
16102;DHT22;56411;52.964;10.540;2022-09-09T10:37:40;22.00;99.90
16102;DHT22;56411;52.964;10.540;2022-09-09T10:40:21;22.40;99.90
16102;DHT22;56411;52.964;10.540;2022-09-09T10:42:50;23.00;99.90
16102;DHT22;56411;52.964;10.540;2022-09-09T10:45:18;23.20;99.90
16102;DHT22;56411;52.964;10.540;2022-09-09T10:50:46;24.00;99.90
16102;DHT22;56411;52.964;10.540;2022-09-09T10:53:23;24.60;99.90
16102;DHT22;56411;52.964;10.540;2022-09-09T10:55:52;25.20;99.90
16102;DHT22;56411;52.964;10.540;2022-09-09T10:58:24;25.10;99.90
16102;DHT22;56411;52.964;10.540;2022-09-09T11:00:55;24.60;99.90
16102;DHT22;56411;52.964;10.540;2022-09-09T11:03:26;24.30;99.90
16102;DHT22;56411;52.964;10.540;2022-09-09T11:05:59;24.20;99.90
16102;DHT22;56411;52.964;10.540;2022-09-09T11:08:29;24.20;99.90
16102;DHT22;56411;52.964;10.540;2022-09-09T11:11:00;24.20;99.90
16102;DHT22;56411;52.964;10.540;2022-09-09T11:13:36;23.30;99.90
16102;DHT22;56411;52.964;10.540;2022-09-09T11:16:19;22.40;99.90
16102;DHT22;56411;52.964;10.540;2022-09-09T11:18:50;21.70;99.90
16102;DHT22;56411;52.964;10.540;2022-09-09T11:21:23;22.40;99.90
16102;DHT22;56411;52.964;10.540;2022-09-09T11:23:55;23.00;99.90
16102;DHT22;56411;52.964;10.540;2022-09-09T11:26:30;23.50;99.90
16102;DHT22;56411;52.964;10.540;2022-09-09T11:29:18;24.70;99.90
16102;DHT22;56411;52.964;10.540;2022-09-09T11:32:03;25.60;99.90
16102;DHT22;56411;52.964;10.540;2022-09-09T11:34:43;26.10;99.90
16102;DHT22;56411;52.964;10.540;2022-09-09T11:37:24;25.20;99.90
16102;DHT22;56411;52.964;10.540;2022-09-09T11:40:16;24.10;99.90
16102;DHT22;56411;52.964;10.540;2022-09-09T11:42:45;23.30;99.90
16102;DHT22;56411;52.964;10.540;2022-09-09T11:45:20;22.80;99.90
16102;DHT22;56411;52.964;10.540;2022-09-09T11:47:53;22.50;99.90
16102;DHT22;56411;52.964;10.540;2022-09-09T11:50:31;22.00;99.90
16102;DHT22;56411;52.964;10.540;2022-09-09T11:53:20;21.60;99.90
16102;DHT22;56411;52.964;10.540;2022-09-09T11:55:48;21.30;99.90
16102;DHT22;56411;52.964;10.540;2022-09-09T11:58:28;21.10;99.90
16102;DHT22;56411;52.964;10.540;2022-09-09T12:00:58;20.80;99.90
16102;DHT22;56411;52.964;10.540;2022-09-09T12:03:41;20.50;99.90
16102;DHT22;56411;52.964;10.540;2022-09-09T12:06:15;20.30;99.90
16102;DHT22;56411;52.964;10.540;2022-09-09T12:08:45;20.10;99.90
16102;DHT22;56411;52.964;10.540;2022-09-09T12:11:12;20.00;99.90
16102;DHT22;56411;52.964;10.540;2022-09-09T12:13:53;19.90;99.90
16102;DHT22;56411;52.964;10.540;2022-09-09T12:16:29;19.80;99.90
16102;DHT22;56411;52.964;10.540;2022-09-09T12:19:05;19.70;99.90
16102;DHT22;56411;52.964;10.540;2022-09-09T12:21:39;19.60;99.90
16102;DHT22;56411;52.964;10.540;2022-09-09T12:24:10;19.50;99.90
16102;DHT22;56411;52.964;10.540;2022-09-09T12:26:41;19.40;99.90
16102;DHT22;56411;52.964;10.540;2022-09-09T12:29:22;19.40;99.90
16102;DHT22;56411;52.964;10.540;2022-09-09T12:31:55;19.30;99.90
16102;DHT22;56411;52.964;10.540;2022-09-09T12:34:33;19.30;99.90
16102;DHT22;56411;52.964;10.540;2022-09-09T12:37:11;19.30;99.90
16102;DHT22;56411;52.964;10.540;2022-09-09T12:39:45;19.20;99.90
16102;DHT22;56411;52.964;10.540;2022-09-09T12:42:21;19.20;99.90
16102;DHT22;56411;52.964;10.540;2022-09-09T12:44:53;19.20;99.90
16102;DHT22;56411;52.964;10.540;2022-09-09T12:47:23;19.20;99.90
16102;DHT22;56411;52.964;10.540;2022-09-09T12:49:54;19.10;99.90
16102;DHT22;56411;52.964;10.540;2022-09-09T12:52:27;19.00;99.90
16102;DHT22;56411;52.964;10.540;2022-09-09T12:54:57;18.80;99.90
16102;DHT22;56411;52.964;10.540;2022-09-09T12:57:26;18.60;99.90
16102;DHT22;56411;52.964;10.540;2022-09-09T13:00:05;18.40;99.90
16102;DHT22;56411;52.964;10.540;2022-09-09T13:02:32;18.30;99.90
16102;DHT22;56411;52.964;10.540;2022-09-09T13:05:08;18.30;99.90
16102;DHT22;56411;52.964;10.540;2022-09-09T13:07:40;18.20;99.90
16102;DHT22;56411;52.964;10.540;2022-09-09T13:10:11;18.30;99.90
16102;DHT22;56411;52.964;10.540;2022-09-09T13:12:38;18.20;99.90
16102;DHT22;56411;52.964;10.540;2022-09-09T13:15:12;18.20;99.90
16102;DHT22;56411;52.964;10.540;2022-09-09T13:17:41;18.20;99.90
16102;DHT22;56411;52.964;10.540;2022-09-09T13:20:16;18.00;99.90
16102;DHT22;56411;52.964;10.540;2022-09-09T13:22:45;18.00;99.90
16102;DHT22;56411;52.964;10.540;2022-09-09T13:25:22;17.90;99.90
16102;DHT22;56411;52.964;10.540;2022-09-09T13:28:02;17.90;99.90
16102;DHT22;56411;52.964;10.540;2022-09-09T13:30:30;17.90;99.90
16102;DHT22;56411;52.964;10.540;2022-09-09T13:33:18;18.00;99.90
16102;DHT22;56411;52.964;10.540;2022-09-09T13:35:51;18.20;99.90
16102;DHT22;56411;52.964;10.540;2022-09-09T13:38:28;18.40;99.90
16102;DHT22;56411;52.964;10.540;2022-09-09T13:40:58;18.50;99.90
16102;DHT22;56411;52.964;10.540;2022-09-09T13:43:29;18.70;99.90
16102;DHT22;56411;52.964;10.540;2022-09-09T13:46:00;18.70;99.90
16102;DHT22;56411;52.964;10.540;2022-09-09T13:48:33;18.70;99.90
16102;DHT22;56411;52.964;10.540;2022-09-09T13:51:01;18.70;99.90
16102;DHT22;56411;52.964;10.540;2022-09-09T13:53:31;18.70;99.90
16102;DHT22;56411;52.964;10.540;2022-09-09T13:55:58;18.60;99.90
16102;DHT22;56411;52.964;10.540;2022-09-09T13:58:26;18.60;99.90
16102;DHT22;56411;52.964;10.540;2022-09-09T14:00:55;18.50;99.90
16102;DHT22;56411;52.964;10.540;2022-09-09T14:03:22;18.50;99.90
16102;DHT22;56411;52.964;10.540;2022-09-09T14:05:49;18.50;99.90
16102;DHT22;56411;52.964;10.540;2022-09-09T14:08:23;18.50;99.90
16102;DHT22;56411;52.964;10.540;2022-09-09T14:10:52;18.50;99.90
16102;DHT22;56411;52.964;10.540;2022-09-09T14:13:23;18.50;99.90
16102;DHT22;56411;52.964;10.540;2022-09-09T14:15:50;18.50;99.90
16102;DHT22;56411;52.964;10.540;2022-09-09T14:18:18;18.60;99.90
16102;DHT22;56411;52.964;10.540;2022-09-09T14:20:45;18.70;99.90
16102;DHT22;56411;52.964;10.540;2022-09-09T14:23:17;18.90;99.90
16102;DHT22;56411;52.964;10.540;2022-09-09T14:25:45;19.10;99.90
16102;DHT22;56411;52.964;10.540;2022-09-09T14:28:16;19.30;99.90
16102;DHT22;56411;52.964;10.540;2022-09-09T14:30:44;19.60;99.90
16102;DHT22;56411;52.964;10.540;2022-09-09T14:33:12;20.30;99.90
16102;DHT22;56411;52.964;10.540;2022-09-09T14:35:40;20.90;99.90
16102;DHT22;56411;52.964;10.540;2022-09-09T14:38:09;21.40;99.90
16102;DHT22;56411;52.964;10.540;2022-09-09T14:40:39;21.80;99.90
16102;DHT22;56411;52.964;10.540;2022-09-09T14:43:09;22.40;99.90
16102;DHT22;56411;52.964;10.540;2022-09-09T14:45:39;23.50;99.90
16102;DHT22;56411;52.964;10.540;2022-09-09T14:48:09;24.30;99.90
16102;DHT22;56411;52.964;10.540;2022-09-09T14:50:36;25.20;99.90
16102;DHT22;56411;52.964;10.540;2022-09-09T14:53:05;26.20;99.90
16102;DHT22;56411;52.964;10.540;2022-09-09T14:55:34;26.90;99.90
16102;DHT22;56411;52.964;10.540;2022-09-09T14:58:01;28.30;99.90
16102;DHT22;56411;52.964;10.540;2022-09-09T15:00:28;28.50;99.90
16102;DHT22;56411;52.964;10.540;2022-09-09T15:02:58;28.10;99.90
16102;DHT22;56411;52.964;10.540;2022-09-09T15:05:25;28.20;99.90
16102;DHT22;56411;52.964;10.540;2022-09-09T15:07:53;27.60;99.90
16102;DHT22;56411;52.964;10.540;2022-09-09T15:10:20;27.80;99.90
16102;DHT22;56411;52.964;10.540;2022-09-09T15:12:47;28.60;99.90
16102;DHT22;56411;52.964;10.540;2022-09-09T15:15:18;28.80;99.90
16102;DHT22;56411;52.964;10.540;2022-09-09T15:17:44;29.50;99.90
16102;DHT22;56411;52.964;10.540;2022-09-09T15:20:13;29.90;99.90
16102;DHT22;56411;52.964;10.540;2022-09-09T15:22:44;29.80;99.90
16102;DHT22;56411;52.964;10.540;2022-09-09T15:25:11;29.00;99.90
16102;DHT22;56411;52.964;10.540;2022-09-09T15:27:38;28.40;99.90
16102;DHT22;56411;52.964;10.540;2022-09-09T15:30:10;28.40;99.90
16102;DHT22;56411;52.964;10.540;2022-09-09T15:32:39;27.90;99.90
16102;DHT22;56411;52.964;10.540;2022-09-09T15:35:07;27.00;99.90
16102;DHT22;56411;52.964;10.540;2022-09-09T15:37:35;26.10;99.90
16102;DHT22;56411;52.964;10.540;2022-09-09T15:40:05;25.70;99.90
16102;DHT22;56411;52.964;10.540;2022-09-09T15:42:32;25.10;99.90
16102;DHT22;56411;52.964;10.540;2022-09-09T15:44:59;24.70;99.90
16102;DHT22;56411;52.964;10.540;2022-09-09T15:47:26;24.70;99.90